createdAt,value
2022-11-29T00:02:19.820Z,2.61
2022-11-29T00:04:46.531Z,2.59
2022-11-29T00:07:13.141Z,2.62
2022-11-29T00:09:40.660Z,2.71
2022-11-29T00:12:15.052Z,2.65
2022-11-29T00:14:42.971Z,2.59
2022-11-29T00:17:10.258Z,2.58
2022-11-29T00:19:37.606Z,2.63
2022-11-29T00:22:04.900Z,2.64
2022-11-29T00:24:33.238Z,2.57
2022-11-29T00:27:00.581Z,2.61
2022-11-29T00:29:27.632Z,2.58
2022-11-29T00:31:54.633Z,2.55
2022-11-29T00:34:22.550Z,2.46
2022-11-29T00:36:49.720Z,2.51
2022-11-29T00:39:16.636Z,2.57
2022-11-29T00:41:43.303Z,2.57
2022-11-29T00:44:14.004Z,2.45
2022-11-29T00:46:43.612Z,2.43
2022-11-29T00:49:10.200Z,2.48
2022-11-29T00:51:36.826Z,2.52
2022-11-29T00:54:04.023Z,2.45
2022-11-29T00:56:30.671Z,2.41
2022-11-29T00:58:57.521Z,2.43
2022-11-29T01:01:25.785Z,2.44
2022-11-29T01:03:52.700Z,2.30
2022-11-29T01:06:19.514Z,2.30
2022-11-29T01:08:46.547Z,2.29
2022-11-29T01:11:22.426Z,2.16
2022-11-29T01:13:50.234Z,2.20
2022-11-29T01:16:17.457Z,2.20
2022-11-29T01:18:44.480Z,2.19
2022-11-29T01:21:22.588Z,2.14
2022-11-29T01:23:50.232Z,2.12
2022-11-29T01:26:22.041Z,2.14
2022-11-29T01:28:50.236Z,2.10
2022-11-29T01:31:29.287Z,2.03
2022-11-29T01:33:57.035Z,2.03
2022-11-29T01:36:24.411Z,2.05
2022-11-29T01:38:51.631Z,2.16
2022-11-29T01:41:27.222Z,2.00
2022-11-29T01:44:07.870Z,2.07
2022-11-29T01:46:36.888Z,1.98
2022-11-29T01:49:27.769Z,2.09
2022-11-29T01:52:06.756Z,2.10
2022-11-29T01:54:40.154Z,2.05
2022-11-29T01:57:07.887Z,2.04
2022-11-29T01:59:37.011Z,2.01
2022-11-29T02:02:07.252Z,1.92
2022-11-29T02:04:34.991Z,1.93
2022-11-29T02:07:01.945Z,1.87
2022-11-29T02:09:28.543Z,1.92
2022-11-29T02:12:16.975Z,1.91
2022-11-29T02:15:02.375Z,1.93
2022-11-29T02:17:32.008Z,1.99
2022-11-29T02:20:36.048Z,1.92
2022-11-29T02:23:39.478Z,1.84
2022-11-29T02:26:40.094Z,1.85
2022-11-29T02:29:45.263Z,1.82
2022-11-29T02:32:33.000Z,1.83
2022-11-29T02:35:17.464Z,1.83
2022-11-29T02:38:02.552Z,1.80
2022-11-29T02:40:35.465Z,1.73
2022-11-29T02:43:07.989Z,1.78
2022-11-29T02:45:37.331Z,1.77
2022-11-29T02:48:13.041Z,1.75
2022-11-29T02:51:27.424Z,1.80
2022-11-29T02:54:01.315Z,1.81
2022-11-29T02:56:40.949Z,1.67
2022-11-29T02:59:25.962Z,1.76
2022-11-29T03:02:14.024Z,1.82
2022-11-29T03:05:13.869Z,1.80
2022-11-29T03:08:01.098Z,1.72
2022-11-29T03:10:53.979Z,1.85
2022-11-29T03:13:43.337Z,1.84
2022-11-29T03:16:43.064Z,1.81
2022-11-29T03:19:38.457Z,1.85
2022-11-29T03:22:23.519Z,1.88
2022-11-29T03:25:03.921Z,1.82
2022-11-29T03:27:38.922Z,1.88
2022-11-29T03:30:10.361Z,1.75
2022-11-29T03:32:49.085Z,1.77
2022-11-29T03:35:33.786Z,1.81
2022-11-29T03:38:05.123Z,1.84
2022-11-29T03:40:40.580Z,1.73
2022-11-29T03:43:11.080Z,1.84
2022-11-29T03:45:45.737Z,1.86
2022-11-29T03:48:19.473Z,1.78
2022-11-29T03:50:58.719Z,1.91
2022-11-29T03:53:46.787Z,1.88
2022-11-29T03:56:26.215Z,1.80
2022-11-29T03:59:01.830Z,1.94
2022-11-29T04:01:46.918Z,1.90
2022-11-29T04:04:32.187Z,1.89
2022-11-29T04:07:01.799Z,1.96
2022-11-29T04:09:28.295Z,1.99
2022-11-29T04:12:19.348Z,1.99
2022-11-29T04:15:15.220Z,2.08
2022-11-29T04:18:12.468Z,1.99
2022-11-29T04:20:48.211Z,1.96
2022-11-29T04:23:43.712Z,1.96
2022-11-29T04:26:34.952Z,1.94
2022-11-29T04:29:10.974Z,1.92
2022-11-29T04:32:08.427Z,1.87
2022-11-29T04:34:55.003Z,1.86
2022-11-29T04:37:59.831Z,1.78
2022-11-29T04:40:31.045Z,1.81
2022-11-29T04:43:15.767Z,1.86
2022-11-29T04:46:13.447Z,1.87
2022-11-29T04:48:51.571Z,1.80
2022-11-29T04:51:42.888Z,1.86
2022-11-29T04:54:16.408Z,1.95
2022-11-29T04:56:45.837Z,1.90
2022-11-29T04:59:36.153Z,1.93
2022-11-29T05:02:20.164Z,1.93
2022-11-29T05:04:56.445Z,1.95
2022-11-29T05:08:00.942Z,1.87
2022-11-29T05:11:05.024Z,1.88
2022-11-29T05:13:46.048Z,1.96
2022-11-29T05:16:15.325Z,1.90
2022-11-29T05:18:47.909Z,1.88
2022-11-29T05:21:25.737Z,1.84
2022-11-29T05:24:08.856Z,1.81
2022-11-29T05:26:48.309Z,1.78
2022-11-29T05:29:41.811Z,1.71
2022-11-29T05:32:35.052Z,1.74
2022-11-29T05:35:13.532Z,1.74
2022-11-29T05:37:52.083Z,1.62
2022-11-29T05:40:38.780Z,1.73
2022-11-29T05:43:29.849Z,1.72
2022-11-29T05:46:35.268Z,1.71
2022-11-29T05:49:16.197Z,1.71
2022-11-29T05:51:57.580Z,1.80
2022-11-29T05:54:35.158Z,1.76
2022-11-29T05:57:29.069Z,1.82
2022-11-29T05:59:57.557Z,1.81
2022-11-29T06:02:26.943Z,1.81
2022-11-29T06:05:27.136Z,1.86
2022-11-29T06:07:55.269Z,1.72
2022-11-29T06:10:26.177Z,1.70
2022-11-29T06:13:27.003Z,1.76
2022-11-29T06:16:09.269Z,1.71
2022-11-29T06:18:52.664Z,1.77
2022-11-29T06:21:41.572Z,1.76
2022-11-29T06:24:50.768Z,1.80
2022-11-29T06:27:36.430Z,1.80
2022-11-29T06:30:15.369Z,1.82
2022-11-29T06:32:54.388Z,1.92
2022-11-29T06:35:38.302Z,1.81
2022-11-29T06:38:14.316Z,1.83
2022-11-29T06:40:41.341Z,1.89
2022-11-29T06:43:08.164Z,1.82
2022-11-29T06:45:34.946Z,1.95
2022-11-29T06:48:05.745Z,1.94
2022-11-29T06:50:46.381Z,1.93
2022-11-29T06:53:25.080Z,2.00
2022-11-29T06:56:25.422Z,2.08
2022-11-29T06:59:07.011Z,2.06
2022-11-29T07:01:43.489Z,2.27
2022-11-29T07:04:46.373Z,2.20
2022-11-29T07:07:20.726Z,2.29
2022-11-29T07:09:51.110Z,2.40
2022-11-29T07:12:18.028Z,2.40
2022-11-29T07:14:45.341Z,2.45
2022-11-29T07:17:23.616Z,2.54
2022-11-29T07:20:09.098Z,2.50
2022-11-29T07:22:50.956Z,2.59
2022-11-29T07:25:27.579Z,2.56
2022-11-29T07:27:54.136Z,2.67
2022-11-29T07:30:25.592Z,2.70
2022-11-29T07:33:00.024Z,2.74
2022-11-29T07:35:47.413Z,2.85
2022-11-29T07:38:43.084Z,2.80
2022-11-29T07:41:14.650Z,2.98
2022-11-29T07:44:06.112Z,3.02
2022-11-29T07:46:32.772Z,3.10
2022-11-29T07:48:59.341Z,3.15
2022-11-29T07:51:26.054Z,3.20
2022-11-29T07:53:52.584Z,3.24
2022-11-29T07:56:19.108Z,3.34
2022-11-29T07:58:45.880Z,3.36
2022-11-29T08:01:12.690Z,3.45
2022-11-29T08:03:41.596Z,3.51
2022-11-29T08:06:08.321Z,3.53
2022-11-29T08:08:37.847Z,3.65
2022-11-29T08:11:10.838Z,3.72
2022-11-29T08:13:37.417Z,3.67
2022-11-29T08:16:04.276Z,3.73
2022-11-29T08:18:30.890Z,3.74
2022-11-29T08:20:57.480Z,3.78
2022-11-29T08:23:24.061Z,3.80
2022-11-29T08:25:50.597Z,3.91
2022-11-29T08:28:17.219Z,3.85
2022-11-29T08:30:43.762Z,3.89
2022-11-29T08:33:10.364Z,3.93
2022-11-29T08:35:36.973Z,3.95
2022-11-29T08:38:04.907Z,3.87
2022-11-29T08:40:31.501Z,3.96
2022-11-29T08:42:58.548Z,3.95
2022-11-29T08:45:25.333Z,3.93
2022-11-29T08:47:51.945Z,3.91
2022-11-29T08:50:18.589Z,4.03
2022-11-29T08:53:06.145Z,3.92
2022-11-29T08:55:35.499Z,3.96
2022-11-29T08:58:04.311Z,3.95
2022-11-29T09:00:32.122Z,3.84
2022-11-29T09:03:18.903Z,3.89
2022-11-29T09:05:45.593Z,3.92
2022-11-29T09:08:12.272Z,4.03
2022-11-29T09:10:40.187Z,4.10
2022-11-29T09:13:07.941Z,4.17
2022-11-29T09:15:34.552Z,4.11
2022-11-29T09:18:01.243Z,4.42
2022-11-29T09:20:27.825Z,4.51
2022-11-29T09:22:54.929Z,4.64
2022-11-29T09:25:21.564Z,4.66
2022-11-29T09:27:48.090Z,4.72
2022-11-29T09:30:19.184Z,4.79
2022-11-29T09:32:48.745Z,4.90
2022-11-29T09:35:15.341Z,5.13
2022-11-29T09:37:42.909Z,5.27
2022-11-29T09:40:16.371Z,5.37
2022-11-29T09:42:52.072Z,5.51
2022-11-29T09:45:30.078Z,5.56
2022-11-29T09:48:34.192Z,5.71
2022-11-29T09:51:17.937Z,5.78
2022-11-29T09:54:05.876Z,5.68
2022-11-29T09:56:41.644Z,5.72
2022-11-29T09:59:12.620Z,5.75
2022-11-29T10:01:43.157Z,5.66
2022-11-29T10:04:14.847Z,5.69
2022-11-29T10:07:12.428Z,5.66
2022-11-29T10:09:52.413Z,5.64
2022-11-29T10:12:39.074Z,5.80
2022-11-29T10:15:16.939Z,5.85
2022-11-29T10:17:56.503Z,5.90
2022-11-29T10:20:26.094Z,5.99
2022-11-29T10:23:29.568Z,6.13
2022-11-29T10:25:57.537Z,6.10
2022-11-29T10:28:25.915Z,6.07
2022-11-29T10:30:57.153Z,6.08
2022-11-29T10:33:27.360Z,6.02
2022-11-29T10:36:02.283Z,5.89
2022-11-29T10:38:31.415Z,6.00
2022-11-29T10:41:04.977Z,5.93
2022-11-29T10:43:31.607Z,5.85
2022-11-29T10:45:58.792Z,5.91
2022-11-29T10:48:28.140Z,5.96
2022-11-29T10:50:54.798Z,6.02
2022-11-29T10:53:26.787Z,5.98
2022-11-29T10:55:53.564Z,6.07
2022-11-29T10:58:29.008Z,6.12
2022-11-29T11:01:01.825Z,6.02
2022-11-29T11:03:38.615Z,6.10
2022-11-29T11:06:47.740Z,6.26
2022-11-29T11:09:35.111Z,6.32
2022-11-29T11:12:08.497Z,6.52
2022-11-29T11:14:40.823Z,6.72
2022-11-29T11:17:22.575Z,6.61
2022-11-29T11:20:01.049Z,6.84
2022-11-29T11:22:29.187Z,6.81
2022-11-29T11:25:25.505Z,6.69
2022-11-29T11:27:52.345Z,6.83
2022-11-29T11:30:24.627Z,6.87
2022-11-29T11:33:20.315Z,7.08
2022-11-29T11:36:07.545Z,7.20
2022-11-29T11:39:01.659Z,7.24
2022-11-29T11:41:55.171Z,7.44
2022-11-29T11:44:48.370Z,7.53
2022-11-29T11:47:21.054Z,7.42
2022-11-29T11:49:53.846Z,7.39
2022-11-29T11:52:26.197Z,7.32
2022-11-29T11:54:58.859Z,7.20
2022-11-29T11:57:26.030Z,7.09
2022-11-29T11:59:54.384Z,7.22
2022-11-29T12:02:38.797Z,7.19
2022-11-29T12:05:11.692Z,7.24
2022-11-29T12:08:08.859Z,7.19
2022-11-29T12:10:38.687Z,7.20
2022-11-29T12:13:05.264Z,7.24
2022-11-29T12:15:38.245Z,7.22
2022-11-29T12:18:25.915Z,7.19
2022-11-29T12:21:14.927Z,7.14
2022-11-29T12:23:52.739Z,6.98
2022-11-29T12:26:58.621Z,7.17
2022-11-29T12:29:29.118Z,7.21
2022-11-29T12:31:55.626Z,7.25
2022-11-29T12:34:43.692Z,7.37
2022-11-29T12:37:21.765Z,7.33
2022-11-29T12:39:49.577Z,7.26
2022-11-29T12:42:50.546Z,7.33
2022-11-29T12:45:32.425Z,7.17
2022-11-29T12:48:10.169Z,7.03
2022-11-29T12:50:44.551Z,6.80
2022-11-29T12:53:11.114Z,6.79
2022-11-29T12:55:40.347Z,6.80
2022-11-29T12:58:10.592Z,6.60
2022-11-29T13:00:53.794Z,6.53
2022-11-29T13:03:30.544Z,6.42
2022-11-29T13:06:21.752Z,6.43
2022-11-29T13:09:10.125Z,6.29
2022-11-29T13:11:40.160Z,6.22
2022-11-29T13:14:42.135Z,6.23
2022-11-29T13:17:36.446Z,6.27
2022-11-29T13:20:45.813Z,6.33
2022-11-29T13:23:15.106Z,6.36
2022-11-29T13:25:43.612Z,6.24
2022-11-29T13:28:49.006Z,6.19
2022-11-29T13:31:18.680Z,6.24
2022-11-29T13:34:07.076Z,6.24
2022-11-29T13:36:56.055Z,6.11
2022-11-29T13:39:34.963Z,6.16
2022-11-29T13:42:05.597Z,6.11
2022-11-29T13:44:57.092Z,5.90
2022-11-29T13:47:23.809Z,5.86
2022-11-29T13:49:58.945Z,5.81
2022-11-29T13:52:34.415Z,5.74
2022-11-29T13:55:12.530Z,5.53
2022-11-29T13:58:15.667Z,5.49
2022-11-29T14:00:46.599Z,5.35
2022-11-29T14:03:28.388Z,5.36
2022-11-29T14:06:21.946Z,5.28
2022-11-29T14:09:17.863Z,5.07
2022-11-29T14:11:48.727Z,4.97
2022-11-29T14:14:33.038Z,4.92
2022-11-29T14:17:02.394Z,4.96
2022-11-29T14:19:36.566Z,4.87
2022-11-29T14:22:03.273Z,4.78
2022-11-29T14:24:35.747Z,4.83
2022-11-29T14:27:12.596Z,4.76
2022-11-29T14:29:53.519Z,4.62
2022-11-29T14:32:59.077Z,4.55
2022-11-29T14:35:44.271Z,4.51
2022-11-29T14:39:08.634Z,4.50
2022-11-29T14:42:01.014Z,4.39
2022-11-29T14:44:30.215Z,4.34
2022-11-29T14:47:26.282Z,4.30
2022-11-29T14:49:54.249Z,4.30
2022-11-29T14:52:27.261Z,4.25
2022-11-29T14:55:03.146Z,4.20
2022-11-29T14:57:44.947Z,4.10
2022-11-29T15:00:12.631Z,3.97
2022-11-29T15:03:06.318Z,3.89
2022-11-29T15:05:35.519Z,3.93
2022-11-29T15:08:14.165Z,3.89
2022-11-29T15:10:45.177Z,3.78
2022-11-29T15:13:14.167Z,3.69
2022-11-29T15:16:03.013Z,3.82
2022-11-29T15:18:47.797Z,3.66
2022-11-29T15:21:32.801Z,3.57
2022-11-29T15:24:03.647Z,3.51
2022-11-29T15:26:32.120Z,3.47
2022-11-29T15:29:15.595Z,3.48
2022-11-29T15:31:43.203Z,3.37
2022-11-29T15:34:30.249Z,3.32
2022-11-29T15:36:57.304Z,3.31
2022-11-29T15:39:36.010Z,3.27
2022-11-29T15:42:14.626Z,3.23
2022-11-29T15:44:49.694Z,3.22
2022-11-29T15:47:16.359Z,3.22
2022-11-29T15:49:42.999Z,3.12
2022-11-29T15:52:18.517Z,3.16
2022-11-29T15:54:50.410Z,3.06
2022-11-29T15:57:27.681Z,3.10
2022-11-29T16:00:01.292Z,3.03
2022-11-29T16:02:33.765Z,2.98
2022-11-29T16:05:04.253Z,3.01
2022-11-29T16:07:34.380Z,2.99
2022-11-29T16:10:04.263Z,2.90
2022-11-29T16:12:31.096Z,2.91
2022-11-29T16:15:00.936Z,2.87
2022-11-29T16:17:31.315Z,2.84
2022-11-29T16:20:14.680Z,2.74
2022-11-29T16:22:41.615Z,2.67
2022-11-29T16:25:19.346Z,2.69
2022-11-29T16:27:46.433Z,2.73
2022-11-29T16:30:27.396Z,2.69
2022-11-29T16:32:56.555Z,2.60
2022-11-29T16:35:26.461Z,2.58
2022-11-29T16:37:53.877Z,2.60
2022-11-29T16:40:35.232Z,2.64
2022-11-29T16:43:19.768Z,2.57
2022-11-29T16:45:47.057Z,2.57
2022-11-29T16:48:22.904Z,2.45
2022-11-29T16:51:11.445Z,2.54
2022-11-29T16:53:42.649Z,2.52
2022-11-29T16:56:13.892Z,2.44
2022-11-29T16:59:17.108Z,2.37
2022-11-29T17:01:31.419Z,2.33
2022-11-29T17:04:00.178Z,2.42
2022-11-29T17:06:28.576Z,2.33
2022-11-29T17:08:57.232Z,2.26
2022-11-29T17:11:24.898Z,2.22
2022-11-29T17:13:53.967Z,2.24
2022-11-29T17:22:27.081Z,2.29
2022-11-29T17:24:54.328Z,2.28
2022-11-29T17:27:21.132Z,2.16
2022-11-29T17:29:47.880Z,2.18
2022-11-29T17:32:14.503Z,2.13
2022-11-29T17:34:41.181Z,2.16
2022-11-29T17:37:07.946Z,2.14
2022-11-29T17:39:34.630Z,2.05
2022-11-29T17:42:01.398Z,2.08
2022-11-29T17:44:28.063Z,2.16
2022-11-29T17:46:54.754Z,1.97
2022-11-29T17:49:21.486Z,1.98
2022-11-29T17:51:53.076Z,1.95
2022-11-29T17:54:21.362Z,1.89
2022-11-29T17:56:48.084Z,1.91
2022-11-29T17:59:14.803Z,1.94
2022-11-29T18:01:41.609Z,1.83
2022-11-29T18:04:08.470Z,1.81
2022-11-29T18:06:40.057Z,1.83
2022-11-29T18:09:09.677Z,1.83
2022-11-29T18:11:47.594Z,1.75
2022-11-29T18:14:23.464Z,1.82
2022-11-29T18:16:50.887Z,1.77
2022-11-29T18:19:19.716Z,1.67
2022-11-29T18:21:46.894Z,1.66
2022-11-29T18:24:13.798Z,1.64
2022-11-29T18:26:41.503Z,1.57
2022-11-29T18:29:08.618Z,1.47
2022-11-29T18:31:37.232Z,1.57
2022-11-29T18:34:29.373Z,1.52
2022-11-29T18:36:55.960Z,1.50
2022-11-29T18:39:25.052Z,1.48
2022-11-29T18:41:51.817Z,1.46
2022-11-29T18:44:20.379Z,1.46
2022-11-29T18:46:47.695Z,1.41
2022-11-29T18:49:16.431Z,1.39
2022-11-29T18:51:44.929Z,1.36
2022-11-29T18:54:15.089Z,1.39
2022-11-29T18:56:45.380Z,1.44
2022-11-29T18:59:17.498Z,1.40
2022-11-29T19:01:46.477Z,1.40
2022-11-29T19:04:15.847Z,1.42
2022-11-29T19:06:43.096Z,1.45
2022-11-29T19:09:14.905Z,1.35
2022-11-29T19:11:41.598Z,1.34
2022-11-29T19:14:13.055Z,1.31
2022-11-29T19:16:44.819Z,1.35
2022-11-29T19:19:11.812Z,1.36
2022-11-29T19:21:39.886Z,1.40
2022-11-29T19:24:13.689Z,1.40
2022-11-29T19:26:41.523Z,1.37
2022-11-29T19:29:08.085Z,1.36
2022-11-29T19:31:34.730Z,1.39
2022-11-29T19:34:01.359Z,1.39
2022-11-29T19:36:30.360Z,1.45
2022-11-29T19:38:58.327Z,1.49
2022-11-29T19:41:27.389Z,1.51
2022-11-29T19:43:56.226Z,1.51
2022-11-29T19:46:25.307Z,1.66
2022-11-29T19:48:53.009Z,1.67
2022-11-29T19:51:19.967Z,1.73
2022-11-29T19:53:47.337Z,1.68
2022-11-29T19:56:16.029Z,1.77
2022-11-29T19:58:43.439Z,1.83
2022-11-29T20:01:16.261Z,1.85
2022-11-29T20:03:43.465Z,1.90
2022-11-29T20:06:10.389Z,1.96
2022-11-29T20:08:37.796Z,1.87
2022-11-29T20:11:20.644Z,1.95
2022-11-29T20:13:52.908Z,1.91
2022-11-29T20:16:22.161Z,1.98
2022-11-29T20:18:51.077Z,2.00
2022-11-29T20:21:20.483Z,2.09
2022-11-29T20:23:48.639Z,2.06
2022-11-29T20:26:17.919Z,2.11
2022-11-29T20:28:45.422Z,2.14
2022-11-29T20:31:17.889Z,2.17
2022-11-29T20:33:46.709Z,2.15
2022-11-29T20:36:25.218Z,2.28
2022-11-29T20:39:13.648Z,2.29
2022-11-29T20:41:53.648Z,2.24
2022-11-29T20:44:21.908Z,2.29
2022-11-29T20:46:48.816Z,2.32
2022-11-29T20:49:17.270Z,2.26
2022-11-29T20:52:04.937Z,2.29
2022-11-29T20:54:31.586Z,2.29
2022-11-29T20:56:59.605Z,2.35
2022-11-29T20:59:26.327Z,2.39
2022-11-29T21:01:53.177Z,2.36
2022-11-29T21:04:23.347Z,2.35
2022-11-29T21:06:50.618Z,2.43
2022-11-29T21:09:17.376Z,2.39
2022-11-29T21:11:44.272Z,2.37
2022-11-29T21:14:11.225Z,2.46
2022-11-29T21:16:38.033Z,2.38
2022-11-29T21:19:04.948Z,2.37
2022-11-29T21:21:31.751Z,2.43
2022-11-29T21:24:06.808Z,2.43
2022-11-29T21:26:45.097Z,2.35
2022-11-29T21:29:27.897Z,2.42
2022-11-29T21:31:56.479Z,2.43
2022-11-29T21:34:26.029Z,2.37
2022-11-29T21:37:02.038Z,2.40
2022-11-29T21:39:38.468Z,2.44
2022-11-29T21:42:12.478Z,2.48
2022-11-29T21:48:03.922Z,2.51
2022-11-29T21:50:31.585Z,2.45
2022-11-29T21:53:01.621Z,2.42
2022-11-29T21:55:31.980Z,2.46
2022-11-29T21:58:01.687Z,2.50
2022-11-29T22:00:37.194Z,2.51
2022-11-29T22:14:28.624Z,2.48
2022-11-29T22:17:00.174Z,2.45
2022-11-29T22:19:32.327Z,2.42
2022-11-29T22:22:01.767Z,2.50
2022-11-29T22:24:31.289Z,2.53
2022-11-29T22:26:58.179Z,2.42
2022-11-29T22:29:25.136Z,2.44
2022-11-29T22:31:53.965Z,2.46
2022-11-29T22:34:21.593Z,2.46
2022-11-29T22:36:48.380Z,2.46
2022-11-29T22:39:15.071Z,2.44
2022-11-29T22:41:41.797Z,2.42
2022-11-29T22:44:08.393Z,2.38
2022-11-29T22:46:38.870Z,2.35
2022-11-29T22:49:06.358Z,2.33
2022-11-29T22:51:35.440Z,2.32
2022-11-29T22:54:10.374Z,2.30
2022-11-29T22:56:40.852Z,2.40
2022-11-29T22:59:09.987Z,2.31
2022-11-29T23:01:39.442Z,2.35
2022-11-29T23:04:10.183Z,2.38
2022-11-29T23:06:42.326Z,2.40
2022-11-29T23:09:19.175Z,2.30
2022-11-29T23:11:53.036Z,2.47
2022-11-29T23:14:24.371Z,2.35
2022-11-29T23:16:54.797Z,2.35
2022-11-29T23:19:31.424Z,2.31
2022-11-29T23:22:00.953Z,2.26
2022-11-29T23:27:21.160Z,2.24
2022-11-29T23:29:56.086Z,2.29
2022-11-29T23:32:25.143Z,2.25
2022-11-29T23:34:56.949Z,2.41
2022-11-29T23:37:26.727Z,2.43
2022-11-29T23:39:55.694Z,2.26
2022-11-29T23:42:25.642Z,2.26
2022-11-29T23:44:54.373Z,2.31
2022-11-29T23:47:23.388Z,2.29
2022-11-29T23:49:52.586Z,2.13
2022-11-29T23:52:22.554Z,2.14
2022-11-29T23:54:50.396Z,2.16
2022-11-29T23:57:23.612Z,2.29
2022-11-29T23:59:51.450Z,2.13
